Terminal Aerodrome Forecast
Issued by NWS St Louis, MO

Home | Current Version | Previous Version | Text Only | Print | Product List | Glossary On
Versions: 1 2 3 4 5 6 7 8 9 10 11 12 13 14 15 16 17 18 19 20 21 22 23 24 25 26 27 28 29 30 31 32 33 34
382
FTUS43 KLSX 212120 AAC
TAFSTL
TAF AMD
KSTL 212120Z 2121/2224 VRB03KT P6SM SCT030
     FM220800 00000KT 1 1/2SM BR SCT050
     FM221000 00000KT 1/2SM FG FEW025
     FM221500 VRB03KT 2SM BR SCT010
     FM221600 20004KT P6SM SCT060=

USA.gov is the U.S. government's official web portal to all federal, state and local government web resources and services.